sensor_id;sensor_type;location;lat;lon;timestamp;temperature;humidity
23259;DHT22;11798;51.528;7.240;2023-06-26T00:00:10;22.50;99.90
23259;DHT22;11798;51.528;7.240;2023-06-26T00:02:36;22.60;99.90
23259;DHT22;11798;51.528;7.240;2023-06-26T00:05:01;22.60;99.90
23259;DHT22;11798;51.528;7.240;2023-06-26T00:07:28;22.60;99.90
23259;DHT22;11798;51.528;7.240;2023-06-26T00:09:53;22.60;99.90
23259;DHT22;11798;51.528;7.240;2023-06-26T00:12:19;22.60;99.90
23259;DHT22;11798;51.528;7.240;2023-06-26T00:14:44;22.60;99.90
23259;DHT22;11798;51.528;7.240;2023-06-26T00:17:11;22.60;99.90
23259;DHT22;11798;51.528;7.240;2023-06-26T00:19:36;22.70;99.90
23259;DHT22;11798;51.528;7.240;2023-06-26T00:22:02;22.70;99.90
23259;DHT22;11798;51.528;7.240;2023-06-26T00:24:27;22.70;99.90
23259;DHT22;11798;51.528;7.240;2023-06-26T00:26:53;22.70;99.90
23259;DHT22;11798;51.528;7.240;2023-06-26T00:29:18;22.70;99.90
23259;DHT22;11798;51.528;7.240;2023-06-26T00:31:44;22.70;99.90
23259;DHT22;11798;51.528;7.240;2023-06-26T00:34:09;22.70;99.90
23259;DHT22;11798;51.528;7.240;2023-06-26T00:36:35;22.70;99.90
23259;DHT22;11798;51.528;7.240;2023-06-26T00:39:00;22.60;99.90
23259;DHT22;11798;51.528;7.240;2023-06-26T00:41:26;22.60;99.90
23259;DHT22;11798;51.528;7.240;2023-06-26T00:43:51;22.70;99.90
23259;DHT22;11798;51.528;7.240;2023-06-26T00:46:17;22.70;99.90
23259;DHT22;11798;51.528;7.240;2023-06-26T00:48:43;22.70;99.90
23259;DHT22;11798;51.528;7.240;2023-06-26T00:51:09;22.60;99.90
23259;DHT22;11798;51.528;7.240;2023-06-26T00:53:35;22.60;99.90
23259;DHT22;11798;51.528;7.240;2023-06-26T00:56:01;22.70;99.90
23259;DHT22;11798;51.528;7.240;2023-06-26T00:58:27;22.60;99.90
23259;DHT22;11798;51.528;7.240;2023-06-26T01:00:53;22.60;99.90
23259;DHT22;11798;51.528;7.240;2023-06-26T01:03:19;22.60;99.90
23259;DHT22;11798;51.528;7.240;2023-06-26T01:05:45;22.60;99.90
23259;DHT22;11798;51.528;7.240;2023-06-26T01:08:13;22.60;99.90
23259;DHT22;11798;51.528;7.240;2023-06-26T01:10:40;22.60;99.90
23259;DHT22;11798;51.528;7.240;2023-06-26T01:13:05;22.50;99.90
23259;DHT22;11798;51.528;7.240;2023-06-26T01:15:31;22.60;99.90
23259;DHT22;11798;51.528;7.240;2023-06-26T01:17:57;22.50;99.90
23259;DHT22;11798;51.528;7.240;2023-06-26T01:20:25;22.50;99.90
23259;DHT22;11798;51.528;7.240;2023-06-26T01:25:37;22.40;99.90
23259;DHT22;11798;51.528;7.240;2023-06-26T01:28:06;22.40;99.90
23259;DHT22;11798;51.528;7.240;2023-06-26T01:30:32;22.40;99.90
23259;DHT22;11798;51.528;7.240;2023-06-26T01:32:59;22.40;99.90
23259;DHT22;11798;51.528;7.240;2023-06-26T01:35:25;22.40;99.90
23259;DHT22;11798;51.528;7.240;2023-06-26T01:37:51;22.30;99.90
23259;DHT22;11798;51.528;7.240;2023-06-26T01:40:17;22.30;99.90
23259;DHT22;11798;51.528;7.240;2023-06-26T01:42:42;22.20;99.90
23259;DHT22;11798;51.528;7.240;2023-06-26T01:45:24;22.20;99.90
23259;DHT22;11798;51.528;7.240;2023-06-26T01:47:51;22.20;99.90
23259;DHT22;11798;51.528;7.240;2023-06-26T01:50:18;22.20;99.90
23259;DHT22;11798;51.528;7.240;2023-06-26T01:53:01;22.20;99.90
23259;DHT22;11798;51.528;7.240;2023-06-26T01:57:54;22.20;99.90
23259;DHT22;11798;51.528;7.240;2023-06-26T02:00:21;22.10;99.90
23259;DHT22;11798;51.528;7.240;2023-06-26T02:02:46;22.10;99.90
23259;DHT22;11798;51.528;7.240;2023-06-26T02:05:12;22.10;99.90
23259;DHT22;11798;51.528;7.240;2023-06-26T02:07:38;22.00;99.90
23259;DHT22;11798;51.528;7.240;2023-06-26T02:10:04;22.00;99.90
23259;DHT22;11798;51.528;7.240;2023-06-26T02:12:29;22.00;99.90
23259;DHT22;11798;51.528;7.240;2023-06-26T02:14:55;22.00;99.90
23259;DHT22;11798;51.528;7.240;2023-06-26T02:17:20;22.00;99.90
23259;DHT22;11798;51.528;7.240;2023-06-26T02:19:46;21.90;99.90
23259;DHT22;11798;51.528;7.240;2023-06-26T02:22:14;21.80;99.90
23259;DHT22;11798;51.528;7.240;2023-06-26T02:24:40;21.90;99.90
23259;DHT22;11798;51.528;7.240;2023-06-26T02:27:06;21.80;99.90
23259;DHT22;11798;51.528;7.240;2023-06-26T02:29:31;21.80;99.90
23259;DHT22;11798;51.528;7.240;2023-06-26T02:31:57;21.80;99.90
23259;DHT22;11798;51.528;7.240;2023-06-26T02:34:22;21.70;99.90
23259;DHT22;11798;51.528;7.240;2023-06-26T02:36:48;21.70;99.90
23259;DHT22;11798;51.528;7.240;2023-06-26T02:39:13;21.70;99.90
23259;DHT22;11798;51.528;7.240;2023-06-26T02:41:39;21.70;99.90
23259;DHT22;11798;51.528;7.240;2023-06-26T02:44:05;21.70;99.90
23259;DHT22;11798;51.528;7.240;2023-06-26T02:46:31;21.60;99.90
23259;DHT22;11798;51.528;7.240;2023-06-26T02:48:57;21.70;99.90
23259;DHT22;11798;51.528;7.240;2023-06-26T02:51:22;21.60;99.90
23259;DHT22;11798;51.528;7.240;2023-06-26T02:53:48;21.60;99.90
23259;DHT22;11798;51.528;7.240;2023-06-26T02:56:13;21.60;99.90
23259;DHT22;11798;51.528;7.240;2023-06-26T02:58:38;21.60;99.90
23259;DHT22;11798;51.528;7.240;2023-06-26T03:01:04;21.50;99.90
23259;DHT22;11798;51.528;7.240;2023-06-26T03:03:29;21.50;99.90
23259;DHT22;11798;51.528;7.240;2023-06-26T03:05:55;21.40;99.90
23259;DHT22;11798;51.528;7.240;2023-06-26T03:08:20;21.30;99.90
23259;DHT22;11798;51.528;7.240;2023-06-26T03:10:46;21.30;99.90
23259;DHT22;11798;51.528;7.240;2023-06-26T03:13:11;21.30;99.90
23259;DHT22;11798;51.528;7.240;2023-06-26T03:15:37;21.30;99.90
23259;DHT22;11798;51.528;7.240;2023-06-26T03:18:02;21.20;99.90
23259;DHT22;11798;51.528;7.240;2023-06-26T03:20:28;21.20;99.90
23259;DHT22;11798;51.528;7.240;2023-06-26T03:22:53;21.20;99.90
23259;DHT22;11798;51.528;7.240;2023-06-26T03:25:19;21.20;99.90
23259;DHT22;11798;51.528;7.240;2023-06-26T03:27:44;21.20;99.90
23259;DHT22;11798;51.528;7.240;2023-06-26T03:30:10;21.20;99.90
23259;DHT22;11798;51.528;7.240;2023-06-26T03:32:36;21.20;99.90
23259;DHT22;11798;51.528;7.240;2023-06-26T03:35:01;21.20;99.90
23259;DHT22;11798;51.528;7.240;2023-06-26T03:37:28;21.20;99.90
23259;DHT22;11798;51.528;7.240;2023-06-26T03:39:54;21.20;99.90
23259;DHT22;11798;51.528;7.240;2023-06-26T03:42:19;21.20;99.90
23259;DHT22;11798;51.528;7.240;2023-06-26T03:44:45;21.20;99.90
23259;DHT22;11798;51.528;7.240;2023-06-26T03:47:10;21.20;99.90
23259;DHT22;11798;51.528;7.240;2023-06-26T03:49:36;21.20;99.90
23259;DHT22;11798;51.528;7.240;2023-06-26T03:52:01;21.20;99.90
23259;DHT22;11798;51.528;7.240;2023-06-26T03:54:27;21.30;99.90
23259;DHT22;11798;51.528;7.240;2023-06-26T03:56:52;21.30;99.90
23259;DHT22;11798;51.528;7.240;2023-06-26T03:59:18;21.30;99.90
23259;DHT22;11798;51.528;7.240;2023-06-26T04:01:43;21.30;99.90
23259;DHT22;11798;51.528;7.240;2023-06-26T04:04:09;21.30;99.90
23259;DHT22;11798;51.528;7.240;2023-06-26T04:06:34;21.40;99.90
23259;DHT22;11798;51.528;7.240;2023-06-26T04:08:59;21.40;99.90
23259;DHT22;11798;51.528;7.240;2023-06-26T04:11:25;21.40;99.90
23259;DHT22;11798;51.528;7.240;2023-06-26T04:13:50;21.40;99.90
23259;DHT22;11798;51.528;7.240;2023-06-26T04:16:16;21.40;99.90
23259;DHT22;11798;51.528;7.240;2023-06-26T04:18:41;21.40;99.90
23259;DHT22;11798;51.528;7.240;2023-06-26T04:21:11;21.30;99.90
23259;DHT22;11798;51.528;7.240;2023-06-26T04:23:37;21.30;99.90
23259;DHT22;11798;51.528;7.240;2023-06-26T04:26:03;21.30;99.90
23259;DHT22;11798;51.528;7.240;2023-06-26T04:28:33;21.30;99.90
23259;DHT22;11798;51.528;7.240;2023-06-26T04:30:59;21.30;99.90
23259;DHT22;11798;51.528;7.240;2023-06-26T04:33:24;21.30;99.90
23259;DHT22;11798;51.528;7.240;2023-06-26T04:35:51;21.30;99.90
23259;DHT22;11798;51.528;7.240;2023-06-26T04:38:16;21.20;99.90
23259;DHT22;11798;51.528;7.240;2023-06-26T04:40:42;21.30;99.90
23259;DHT22;11798;51.528;7.240;2023-06-26T04:43:07;21.20;99.90
23259;DHT22;11798;51.528;7.240;2023-06-26T04:45:33;21.20;99.90
23259;DHT22;11798;51.528;7.240;2023-06-26T04:47:58;21.20;99.90
23259;DHT22;11798;51.528;7.240;2023-06-26T04:50:25;21.30;99.90
23259;DHT22;11798;51.528;7.240;2023-06-26T04:52:51;21.20;99.90
23259;DHT22;11798;51.528;7.240;2023-06-26T04:55:16;21.20;99.90
23259;DHT22;11798;51.528;7.240;2023-06-26T04:57:42;21.30;99.90
23259;DHT22;11798;51.528;7.240;2023-06-26T05:00:07;21.30;99.90
23259;DHT22;11798;51.528;7.240;2023-06-26T05:02:36;21.30;99.90
23259;DHT22;11798;51.528;7.240;2023-06-26T05:05:01;21.30;99.90
23259;DHT22;11798;51.528;7.240;2023-06-26T05:07:27;21.30;99.90
23259;DHT22;11798;51.528;7.240;2023-06-26T05:09:52;21.30;99.90
23259;DHT22;11798;51.528;7.240;2023-06-26T05:12:18;21.30;99.90
23259;DHT22;11798;51.528;7.240;2023-06-26T05:14:43;21.30;99.90
23259;DHT22;11798;51.528;7.240;2023-06-26T05:17:09;21.30;99.90
23259;DHT22;11798;51.528;7.240;2023-06-26T05:19:34;21.40;99.90
23259;DHT22;11798;51.528;7.240;2023-06-26T05:22:00;21.50;99.90
23259;DHT22;11798;51.528;7.240;2023-06-26T05:24:29;21.50;99.90
23259;DHT22;11798;51.528;7.240;2023-06-26T05:26:55;21.50;99.90
23259;DHT22;11798;51.528;7.240;2023-06-26T05:29:21;21.50;99.90
23259;DHT22;11798;51.528;7.240;2023-06-26T05:31:46;21.50;99.90
23259;DHT22;11798;51.528;7.240;2023-06-26T05:34:12;21.50;99.90
23259;DHT22;11798;51.528;7.240;2023-06-26T05:36:38;21.40;99.90
23259;DHT22;11798;51.528;7.240;2023-06-26T05:39:06;21.40;99.90
23259;DHT22;11798;51.528;7.240;2023-06-26T05:41:32;21.40;99.90
23259;DHT22;11798;51.528;7.240;2023-06-26T05:43:57;21.40;99.90
23259;DHT22;11798;51.528;7.240;2023-06-26T05:46:23;21.40;99.90
23259;DHT22;11798;51.528;7.240;2023-06-26T05:48:48;21.50;99.90
23259;DHT22;11798;51.528;7.240;2023-06-26T05:51:14;21.60;99.90
23259;DHT22;11798;51.528;7.240;2023-06-26T05:53:39;21.60;99.90
23259;DHT22;11798;51.528;7.240;2023-06-26T05:56:05;21.70;99.90
23259;DHT22;11798;51.528;7.240;2023-06-26T05:58:30;21.90;99.90
23259;DHT22;11798;51.528;7.240;2023-06-26T06:00:56;21.90;99.90
23259;DHT22;11798;51.528;7.240;2023-06-26T06:03:23;21.80;99.90
23259;DHT22;11798;51.528;7.240;2023-06-26T06:05:48;21.70;99.90
23259;DHT22;11798;51.528;7.240;2023-06-26T06:08:14;21.60;99.90
23259;DHT22;11798;51.528;7.240;2023-06-26T06:10:39;21.50;99.90
23259;DHT22;11798;51.528;7.240;2023-06-26T06:13:05;21.40;99.90
23259;DHT22;11798;51.528;7.240;2023-06-26T06:15:30;21.40;99.90
23259;DHT22;11798;51.528;7.240;2023-06-26T06:17:56;21.40;99.90
23259;DHT22;11798;51.528;7.240;2023-06-26T06:20:21;21.50;99.90
23259;DHT22;11798;51.528;7.240;2023-06-26T06:22:47;21.60;99.90
23259;DHT22;11798;51.528;7.240;2023-06-26T06:25:14;21.70;99.90
23259;DHT22;11798;51.528;7.240;2023-06-26T06:27:39;21.80;99.90
23259;DHT22;11798;51.528;7.240;2023-06-26T06:30:05;21.80;99.90
23259;DHT22;11798;51.528;7.240;2023-06-26T06:32:30;21.90;99.90
23259;DHT22;11798;51.528;7.240;2023-06-26T06:34:56;21.90;99.90
23259;DHT22;11798;51.528;7.240;2023-06-26T06:37:22;22.00;99.90
23259;DHT22;11798;51.528;7.240;2023-06-26T06:39:48;22.10;99.90
23259;DHT22;11798;51.528;7.240;2023-06-26T06:42:13;22.10;99.90
23259;DHT22;11798;51.528;7.240;2023-06-26T06:44:39;22.10;99.90
23259;DHT22;11798;51.528;7.240;2023-06-26T06:47:04;22.10;99.90
23259;DHT22;11798;51.528;7.240;2023-06-26T06:49:30;22.00;99.90
23259;DHT22;11798;51.528;7.240;2023-06-26T06:51:56;21.60;99.90
23259;DHT22;11798;51.528;7.240;2023-06-26T06:54:21;21.40;99.90
23259;DHT22;11798;51.528;7.240;2023-06-26T06:56:46;21.40;99.90
23259;DHT22;11798;51.528;7.240;2023-06-26T06:59:12;21.30;99.90
23259;DHT22;11798;51.528;7.240;2023-06-26T07:01:38;21.30;99.90
23259;DHT22;11798;51.528;7.240;2023-06-26T07:04:04;21.30;99.90
23259;DHT22;11798;51.528;7.240;2023-06-26T07:06:29;21.20;99.90
23259;DHT22;11798;51.528;7.240;2023-06-26T07:08:55;21.30;99.90
23259;DHT22;11798;51.528;7.240;2023-06-26T07:11:20;21.30;99.90
23259;DHT22;11798;51.528;7.240;2023-06-26T07:13:46;21.40;99.90
23259;DHT22;11798;51.528;7.240;2023-06-26T07:16:11;21.60;99.90
23259;DHT22;11798;51.528;7.240;2023-06-26T07:18:38;21.60;99.90
23259;DHT22;11798;51.528;7.240;2023-06-26T07:21:03;21.60;99.90
23259;DHT22;11798;51.528;7.240;2023-06-26T07:23:29;21.60;99.90
23259;DHT22;11798;51.528;7.240;2023-06-26T07:25:54;21.60;99.90
23259;DHT22;11798;51.528;7.240;2023-06-26T07:28:20;21.70;99.90
23259;DHT22;11798;51.528;7.240;2023-06-26T07:30:45;21.80;99.90
23259;DHT22;11798;51.528;7.240;2023-06-26T07:33:10;21.90;99.90
23259;DHT22;11798;51.528;7.240;2023-06-26T07:35:36;22.00;99.90
23259;DHT22;11798;51.528;7.240;2023-06-26T07:38:01;22.10;99.90
23259;DHT22;11798;51.528;7.240;2023-06-26T07:40:27;22.20;99.90
23259;DHT22;11798;51.528;7.240;2023-06-26T07:42:53;22.20;99.90
23259;DHT22;11798;51.528;7.240;2023-06-26T07:45:19;22.30;99.90
23259;DHT22;11798;51.528;7.240;2023-06-26T07:47:45;22.30;99.90
23259;DHT22;11798;51.528;7.240;2023-06-26T07:50:10;22.30;99.90
23259;DHT22;11798;51.528;7.240;2023-06-26T07:52:36;22.30;99.90
23259;DHT22;11798;51.528;7.240;2023-06-26T07:55:01;22.30;99.90
23259;DHT22;11798;51.528;7.240;2023-06-26T07:57:29;22.40;99.90
23259;DHT22;11798;51.528;7.240;2023-06-26T07:59:55;22.60;99.90
23259;DHT22;11798;51.528;7.240;2023-06-26T08:02:21;22.80;99.90
23259;DHT22;11798;51.528;7.240;2023-06-26T08:04:46;23.00;99.90
23259;DHT22;11798;51.528;7.240;2023-06-26T08:07:12;23.10;99.90
23259;DHT22;11798;51.528;7.240;2023-06-26T08:09:39;23.00;99.90
23259;DHT22;11798;51.528;7.240;2023-06-26T08:12:04;22.80;99.90
23259;DHT22;11798;51.528;7.240;2023-06-26T08:14:30;23.00;99.90
23259;DHT22;11798;51.528;7.240;2023-06-26T08:16:56;23.00;99.90
23259;DHT22;11798;51.528;7.240;2023-06-26T08:19:22;22.90;99.90
23259;DHT22;11798;51.528;7.240;2023-06-26T08:21:48;22.90;99.90
23259;DHT22;11798;51.528;7.240;2023-06-26T08:24:13;23.00;99.90
23259;DHT22;11798;51.528;7.240;2023-06-26T08:26:41;23.10;99.90
23259;DHT22;11798;51.528;7.240;2023-06-26T08:29:07;23.10;99.90
23259;DHT22;11798;51.528;7.240;2023-06-26T08:31:35;22.90;99.90
23259;DHT22;11798;51.528;7.240;2023-06-26T08:34:02;22.90;99.90
23259;DHT22;11798;51.528;7.240;2023-06-26T08:36:28;23.10;99.90
23259;DHT22;11798;51.528;7.240;2023-06-26T08:38:53;23.20;99.90
23259;DHT22;11798;51.528;7.240;2023-06-26T08:41:19;23.20;99.90
23259;DHT22;11798;51.528;7.240;2023-06-26T08:43:44;23.00;99.90
23259;DHT22;11798;51.528;7.240;2023-06-26T08:46:10;23.00;99.90
23259;DHT22;11798;51.528;7.240;2023-06-26T08:48:36;23.00;99.90
23259;DHT22;11798;51.528;7.240;2023-06-26T08:51:11;23.00;99.90
23259;DHT22;11798;51.528;7.240;2023-06-26T08:56:02;23.10;99.90
23259;DHT22;11798;51.528;7.240;2023-06-26T08:58:28;23.00;99.90
23259;DHT22;11798;51.528;7.240;2023-06-26T09:00:54;23.00;99.90
23259;DHT22;11798;51.528;7.240;2023-06-26T09:03:21;22.80;99.90
23259;DHT22;11798;51.528;7.240;2023-06-26T09:05:47;22.90;99.90
23259;DHT22;11798;51.528;7.240;2023-06-26T09:08:12;23.00;99.90
23259;DHT22;11798;51.528;7.240;2023-06-26T09:10:38;23.20;99.90
23259;DHT22;11798;51.528;7.240;2023-06-26T09:13:04;23.10;99.90
23259;DHT22;11798;51.528;7.240;2023-06-26T09:15:37;23.10;99.90
23259;DHT22;11798;51.528;7.240;2023-06-26T09:18:04;23.10;99.90
23259;DHT22;11798;51.528;7.240;2023-06-26T09:20:29;23.20;99.90
23259;DHT22;11798;51.528;7.240;2023-06-26T09:22:58;23.10;99.90
23259;DHT22;11798;51.528;7.240;2023-06-26T09:25:24;23.10;99.90
23259;DHT22;11798;51.528;7.240;2023-06-26T09:27:49;23.20;99.90
23259;DHT22;11798;51.528;7.240;2023-06-26T09:30:18;23.30;99.90
23259;DHT22;11798;51.528;7.240;2023-06-26T09:32:44;23.30;99.90
23259;DHT22;11798;51.528;7.240;2023-06-26T09:35:10;23.30;99.90
23259;DHT22;11798;51.528;7.240;2023-06-26T09:37:35;23.40;99.90
23259;DHT22;11798;51.528;7.240;2023-06-26T09:40:01;23.40;99.90
23259;DHT22;11798;51.528;7.240;2023-06-26T09:42:26;23.50;99.90
23259;DHT22;11798;51.528;7.240;2023-06-26T09:44:52;23.50;99.90
23259;DHT22;11798;51.528;7.240;2023-06-26T09:47:19;23.60;99.90
23259;DHT22;11798;51.528;7.240;2023-06-26T09:49:45;23.40;99.90
23259;DHT22;11798;51.528;7.240;2023-06-26T09:52:14;23.40;99.90
23259;DHT22;11798;51.528;7.240;2023-06-26T09:54:40;23.20;99.90
23259;DHT22;11798;51.528;7.240;2023-06-26T09:57:07;23.20;99.90
23259;DHT22;11798;51.528;7.240;2023-06-26T09:59:33;23.30;99.90
23259;DHT22;11798;51.528;7.240;2023-06-26T10:01:59;23.30;99.90
23259;DHT22;11798;51.528;7.240;2023-06-26T10:04:25;23.30;99.90
23259;DHT22;11798;51.528;7.240;2023-06-26T10:06:51;23.30;99.90
23259;DHT22;11798;51.528;7.240;2023-06-26T10:09:17;23.40;99.90
23259;DHT22;11798;51.528;7.240;2023-06-26T10:11:47;23.80;99.90
23259;DHT22;11798;51.528;7.240;2023-06-26T10:14:14;24.00;99.90
23259;DHT22;11798;51.528;7.240;2023-06-26T10:16:40;24.10;99.90
23259;DHT22;11798;51.528;7.240;2023-06-26T10:19:07;24.00;99.90
23259;DHT22;11798;51.528;7.240;2023-06-26T10:21:34;24.00;99.90
23259;DHT22;11798;51.528;7.240;2023-06-26T10:24:00;23.80;99.90
23259;DHT22;11798;51.528;7.240;2023-06-26T10:26:27;23.80;99.90
23259;DHT22;11798;51.528;7.240;2023-06-26T10:28:53;24.00;99.90
23259;DHT22;11798;51.528;7.240;2023-06-26T10:31:20;24.20;99.90
23259;DHT22;11798;51.528;7.240;2023-06-26T10:33:47;24.20;99.90
23259;DHT22;11798;51.528;7.240;2023-06-26T10:36:19;24.10;99.90
23259;DHT22;11798;51.528;7.240;2023-06-26T10:38:53;24.20;99.90
23259;DHT22;11798;51.528;7.240;2023-06-26T10:41:20;24.20;99.90
23259;DHT22;11798;51.528;7.240;2023-06-26T10:43:48;24.00;99.90
23259;DHT22;11798;51.528;7.240;2023-06-26T10:46:17;23.90;99.90
23259;DHT22;11798;51.528;7.240;2023-06-26T10:48:56;24.00;99.90
23259;DHT22;11798;51.528;7.240;2023-06-26T10:51:22;24.00;99.90
23259;DHT22;11798;51.528;7.240;2023-06-26T10:53:57;24.30;99.90
23259;DHT22;11798;51.528;7.240;2023-06-26T10:59:17;24.70;99.90
23259;DHT22;11798;51.528;7.240;2023-06-26T11:01:44;24.80;99.90
23259;DHT22;11798;51.528;7.240;2023-06-26T11:04:10;24.60;99.90
23259;DHT22;11798;51.528;7.240;2023-06-26T11:06:36;24.60;99.90
23259;DHT22;11798;51.528;7.240;2023-06-26T11:14:13;24.60;99.90
23259;DHT22;11798;51.528;7.240;2023-06-26T11:16:39;24.50;99.90
23259;DHT22;11798;51.528;7.240;2023-06-26T11:19:07;24.40;99.90
23259;DHT22;11798;51.528;7.240;2023-06-26T11:21:33;24.30;99.90
23259;DHT22;11798;51.528;7.240;2023-06-26T11:23:59;24.60;99.90
23259;DHT22;11798;51.528;7.240;2023-06-26T11:26:27;24.90;99.90
23259;DHT22;11798;51.528;7.240;2023-06-26T11:28:56;24.80;99.90
23259;DHT22;11798;51.528;7.240;2023-06-26T11:31:28;24.90;99.90
23259;DHT22;11798;51.528;7.240;2023-06-26T11:33:58;25.00;99.90
23259;DHT22;11798;51.528;7.240;2023-06-26T11:36:25;25.00;99.90
23259;DHT22;11798;51.528;7.240;2023-06-26T11:38:58;24.80;99.90
23259;DHT22;11798;51.528;7.240;2023-06-26T11:41:25;24.80;99.90
23259;DHT22;11798;51.528;7.240;2023-06-26T11:43:51;24.60;99.90
23259;DHT22;11798;51.528;7.240;2023-06-26T11:46:18;24.80;99.90
23259;DHT22;11798;51.528;7.240;2023-06-26T11:48:44;24.80;99.90
23259;DHT22;11798;51.528;7.240;2023-06-26T11:51:12;24.80;99.90
23259;DHT22;11798;51.528;7.240;2023-06-26T11:53:40;24.90;99.90
23259;DHT22;11798;51.528;7.240;2023-06-26T11:56:10;24.60;99.90
23259;DHT22;11798;51.528;7.240;2023-06-26T11:58:36;24.80;99.90
23259;DHT22;11798;51.528;7.240;2023-06-26T12:01:02;24.60;99.90
23259;DHT22;11798;51.528;7.240;2023-06-26T12:03:28;24.70;99.90
23259;DHT22;11798;51.528;7.240;2023-06-26T12:05:54;24.60;99.90
23259;DHT22;11798;51.528;7.240;2023-06-26T12:08:19;24.70;99.90
23259;DHT22;11798;51.528;7.240;2023-06-26T12:10:45;24.80;99.90
23259;DHT22;11798;51.528;7.240;2023-06-26T12:13:11;24.90;99.90
23259;DHT22;11798;51.528;7.240;2023-06-26T12:15:36;24.80;99.90
23259;DHT22;11798;51.528;7.240;2023-06-26T12:18:07;24.70;99.90
23259;DHT22;11798;51.528;7.240;2023-06-26T12:20:33;24.50;99.90
23259;DHT22;11798;51.528;7.240;2023-06-26T12:22:58;24.50;99.90
23259;DHT22;11798;51.528;7.240;2023-06-26T12:25:24;24.70;99.90
23259;DHT22;11798;51.528;7.240;2023-06-26T12:27:49;24.80;99.90
23259;DHT22;11798;51.528;7.240;2023-06-26T12:30:15;24.80;99.90
23259;DHT22;11798;51.528;7.240;2023-06-26T12:32:43;24.70;99.90
23259;DHT22;11798;51.528;7.240;2023-06-26T12:35:09;24.50;99.90
23259;DHT22;11798;51.528;7.240;2023-06-26T12:37:37;24.60;99.90
23259;DHT22;11798;51.528;7.240;2023-06-26T12:40:15;24.70;99.90
23259;DHT22;11798;51.528;7.240;2023-06-26T12:42:41;24.70;99.90
23259;DHT22;11798;51.528;7.240;2023-06-26T12:45:10;24.70;99.90
23259;DHT22;11798;51.528;7.240;2023-06-26T12:47:36;24.50;99.90
23259;DHT22;11798;51.528;7.240;2023-06-26T12:50:06;24.80;99.90
23259;DHT22;11798;51.528;7.240;2023-06-26T12:52:32;24.80;99.90
23259;DHT22;11798;51.528;7.240;2023-06-26T12:54:58;24.90;99.90
23259;DHT22;11798;51.528;7.240;2023-06-26T12:57:23;25.00;99.90
23259;DHT22;11798;51.528;7.240;2023-06-26T12:59:49;24.80;99.90
23259;DHT22;11798;51.528;7.240;2023-06-26T13:02:14;24.80;99.90
23259;DHT22;11798;51.528;7.240;2023-06-26T13:04:40;24.70;99.90
23259;DHT22;11798;51.528;7.240;2023-06-26T13:07:06;24.80;99.90
23259;DHT22;11798;51.528;7.240;2023-06-26T13:09:32;24.60;99.90
23259;DHT22;11798;51.528;7.240;2023-06-26T13:11:59;24.40;99.90
23259;DHT22;11798;51.528;7.240;2023-06-26T13:14:24;24.50;99.90
23259;DHT22;11798;51.528;7.240;2023-06-26T13:16:50;24.70;99.90
23259;DHT22;11798;51.528;7.240;2023-06-26T13:19:15;24.50;99.90
23259;DHT22;11798;51.528;7.240;2023-06-26T13:21:41;24.40;99.90
23259;DHT22;11798;51.528;7.240;2023-06-26T13:24:07;24.40;99.90
23259;DHT22;11798;51.528;7.240;2023-06-26T13:26:33;24.60;99.90
23259;DHT22;11798;51.528;7.240;2023-06-26T13:28:58;24.60;99.90
23259;DHT22;11798;51.528;7.240;2023-06-26T13:31:24;24.50;99.90
23259;DHT22;11798;51.528;7.240;2023-06-26T13:33:49;24.20;99.90
23259;DHT22;11798;51.528;7.240;2023-06-26T13:36:17;24.10;99.90
23259;DHT22;11798;51.528;7.240;2023-06-26T13:38:43;24.10;99.90
23259;DHT22;11798;51.528;7.240;2023-06-26T13:41:08;24.20;99.90
23259;DHT22;11798;51.528;7.240;2023-06-26T13:43:34;24.20;99.90
23259;DHT22;11798;51.528;7.240;2023-06-26T13:46:00;24.30;99.90
23259;DHT22;11798;51.528;7.240;2023-06-26T13:48:25;24.30;99.90
23259;DHT22;11798;51.528;7.240;2023-06-26T13:50:51;24.50;99.90
23259;DHT22;11798;51.528;7.240;2023-06-26T13:53:17;24.50;99.90
23259;DHT22;11798;51.528;7.240;2023-06-26T13:55:42;24.40;99.90
23259;DHT22;11798;51.528;7.240;2023-06-26T13:58:08;24.50;99.90
23259;DHT22;11798;51.528;7.240;2023-06-26T14:00:34;24.70;99.90
23259;DHT22;11798;51.528;7.240;2023-06-26T14:03:00;24.70;99.90
23259;DHT22;11798;51.528;7.240;2023-06-26T14:05:26;24.60;99.90
23259;DHT22;11798;51.528;7.240;2023-06-26T14:07:52;25.00;99.90
23259;DHT22;11798;51.528;7.240;2023-06-26T14:10:19;25.10;99.90
23259;DHT22;11798;51.528;7.240;2023-06-26T14:12:44;25.00;99.90
23259;DHT22;11798;51.528;7.240;2023-06-26T14:15:10;24.80;99.90
23259;DHT22;11798;51.528;7.240;2023-06-26T14:17:35;24.60;99.90
23259;DHT22;11798;51.528;7.240;2023-06-26T14:20:01;24.80;99.90
23259;DHT22;11798;51.528;7.240;2023-06-26T14:22:26;24.90;99.90
23259;DHT22;11798;51.528;7.240;2023-06-26T14:24:52;24.90;99.90
23259;DHT22;11798;51.528;7.240;2023-06-26T14:27:18;24.60;99.90
23259;DHT22;11798;51.528;7.240;2023-06-26T14:29:43;24.40;99.90
23259;DHT22;11798;51.528;7.240;2023-06-26T14:32:09;24.40;99.90
23259;DHT22;11798;51.528;7.240;2023-06-26T14:34:34;24.40;99.90
23259;DHT22;11798;51.528;7.240;2023-06-26T14:37:00;24.70;99.90
23259;DHT22;11798;51.528;7.240;2023-06-26T14:39:25;25.10;99.90
23259;DHT22;11798;51.528;7.240;2023-06-26T14:41:51;25.30;99.90
23259;DHT22;11798;51.528;7.240;2023-06-26T14:44:16;25.60;99.90
23259;DHT22;11798;51.528;7.240;2023-06-26T14:46:42;25.60;99.90
23259;DHT22;11798;51.528;7.240;2023-06-26T14:49:08;25.40;99.90
23259;DHT22;11798;51.528;7.240;2023-06-26T14:51:34;25.30;99.90
23259;DHT22;11798;51.528;7.240;2023-06-26T14:54:00;25.20;99.90
23259;DHT22;11798;51.528;7.240;2023-06-26T14:56:25;24.90;99.90
23259;DHT22;11798;51.528;7.240;2023-06-26T14:58:51;24.70;99.90
23259;DHT22;11798;51.528;7.240;2023-06-26T15:01:19;24.80;99.90
23259;DHT22;11798;51.528;7.240;2023-06-26T15:03:48;24.70;99.90
23259;DHT22;11798;51.528;7.240;2023-06-26T15:06:14;24.70;99.90
23259;DHT22;11798;51.528;7.240;2023-06-26T15:08:39;24.90;99.90
23259;DHT22;11798;51.528;7.240;2023-06-26T15:11:05;25.00;99.90
23259;DHT22;11798;51.528;7.240;2023-06-26T15:13:30;25.00;99.90
23259;DHT22;11798;51.528;7.240;2023-06-26T15:15:55;24.90;99.90
23259;DHT22;11798;51.528;7.240;2023-06-26T15:18:21;25.10;99.90
23259;DHT22;11798;51.528;7.240;2023-06-26T15:20:46;25.20;99.90
23259;DHT22;11798;51.528;7.240;2023-06-26T15:23:12;25.40;99.90
23259;DHT22;11798;51.528;7.240;2023-06-26T15:25:38;25.40;99.90
23259;DHT22;11798;51.528;7.240;2023-06-26T15:28:04;25.10;99.90
23259;DHT22;11798;51.528;7.240;2023-06-26T15:30:29;24.60;99.90
23259;DHT22;11798;51.528;7.240;2023-06-26T15:32:55;24.80;99.90
23259;DHT22;11798;51.528;7.240;2023-06-26T15:35:20;25.10;99.90
23259;DHT22;11798;51.528;7.240;2023-06-26T15:37:45;24.70;99.90